createdAt,value
2023-01-23T00:02:07.356Z,363.15
2023-01-23T00:05:11.638Z,394.13
2023-01-23T00:08:14.999Z,360.42
2023-01-23T00:11:22.141Z,362.17
2023-01-23T00:14:25.638Z,408.55
2023-01-23T00:17:29.625Z,383.13
2023-01-23T00:20:33.063Z,382.27
2023-01-23T00:23:37.060Z,346.13
2023-01-23T00:26:41.809Z,388.85
2023-01-23T00:29:45.348Z,382.23
2023-01-23T00:32:48.666Z,387.17
2023-01-23T00:35:55.863Z,391.42
2023-01-23T00:38:59.176Z,367.92
2023-01-23T00:42:04.101Z,371.67
2023-01-23T00:45:08.942Z,387.23
2023-01-23T00:48:12.307Z,373.42
2023-01-23T00:51:16.041Z,357.73
2023-01-23T00:54:21.284Z,400.20
2023-01-23T00:57:26.090Z,393.70
2023-01-23T01:00:30.045Z,414.23
2023-01-23T01:03:33.702Z,389.65
2023-01-23T01:06:37.897Z,389.60
2023-01-23T01:09:41.301Z,383.95
2023-01-23T01:12:47.972Z,391.13
2023-01-23T01:15:52.853Z,423.77
2023-01-23T01:18:56.332Z,399.92
2023-01-23T01:21:59.636Z,396.40
2023-01-23T01:25:03.012Z,409.50
2023-01-23T01:28:08.105Z,404.08
2023-01-23T01:31:13.580Z,375.13
2023-01-23T01:34:16.972Z,379.17
2023-01-23T01:37:22.631Z,375.00
2023-01-23T01:40:28.944Z,389.90
2023-01-23T01:43:35.212Z,394.17
2023-01-23T01:46:38.754Z,387.50
2023-01-23T01:49:42.197Z,389.42
2023-01-23T01:52:45.501Z,388.85
2023-01-23T01:55:49.405Z,370.95
2023-01-23T01:58:55.270Z,387.95
2023-01-23T02:02:05.111Z,392.52
2023-01-23T02:05:12.748Z,390.10
2023-01-23T02:08:22.614Z,371.27
2023-01-23T02:11:26.988Z,383.52
2023-01-23T02:14:31.944Z,379.70
2023-01-23T02:17:38.171Z,332.90
2023-01-23T02:20:41.754Z,302.60
2023-01-23T02:23:56.540Z,309.40
2023-01-23T02:27:04.445Z,323.88
2023-01-23T02:30:09.948Z,291.35
2023-01-23T02:33:44.396Z,319.73
2023-01-23T02:36:49.643Z,298.42
2023-01-23T02:39:54.070Z,386.83
2023-01-23T02:43:00.093Z,337.23
2023-01-23T02:46:04.015Z,350.77
2023-01-23T02:49:07.311Z,320.25
2023-01-23T02:52:10.864Z,366.27
2023-01-23T02:55:14.054Z,347.10
2023-01-23T02:58:36.482Z,361.30
2023-01-23T03:01:39.811Z,358.20
2023-01-23T03:04:43.308Z,364.13
2023-01-23T03:07:46.674Z,391.70
2023-01-23T03:10:49.981Z,373.25
2023-01-23T03:13:55.313Z,345.08
2023-01-23T03:16:58.676Z,369.45
2023-01-23T03:20:07.466Z,386.52
2023-01-23T03:23:10.909Z,360.80
2023-01-23T03:26:14.398Z,343.77
2023-01-23T03:29:38.836Z,349.13
2023-01-23T03:32:42.379Z,346.98
2023-01-23T03:35:45.844Z,373.38
2023-01-23T03:39:03.389Z,348.25
2023-01-23T03:42:07.454Z,356.95
2023-01-23T03:45:12.278Z,356.85
2023-01-23T03:48:15.552Z,351.73
2023-01-23T03:51:20.963Z,372.73
2023-01-23T03:54:25.506Z,369.52
2023-01-23T03:57:29.766Z,335.52
2023-01-23T04:00:45.912Z,366.73
2023-01-23T04:03:50.654Z,342.00
2023-01-23T04:06:54.060Z,322.63
2023-01-23T04:09:57.981Z,320.63
2023-01-23T04:13:01.941Z,335.60
2023-01-23T04:16:08.578Z,346.80
2023-01-23T04:19:12.443Z,300.80
2023-01-23T04:22:15.840Z,325.05
2023-01-23T04:25:23.151Z,312.05
2023-01-23T04:28:26.515Z,346.08
2023-01-23T04:31:33.488Z,330.50
2023-01-23T04:34:37.216Z,307.30
2023-01-23T04:37:40.902Z,329.63
2023-01-23T04:40:44.891Z,296.45
2023-01-23T04:43:48.671Z,328.10
2023-01-23T04:46:55.042Z,297.20
2023-01-23T04:49:58.671Z,308.77
2023-01-23T04:53:02.450Z,301.00
2023-01-23T04:56:06.643Z,333.30
2023-01-23T04:59:10.417Z,337.30
2023-01-23T05:02:15.408Z,352.17
2023-01-23T05:05:21.241Z,310.23
2023-01-23T05:08:26.983Z,315.02
2023-01-23T05:11:49.892Z,307.02
2023-01-23T05:14:54.219Z,316.42
2023-01-23T05:17:59.829Z,310.55
2023-01-23T05:21:03.219Z,317.20
2023-01-23T05:24:07.899Z,343.92
2023-01-23T05:27:11.369Z,313.15
2023-01-23T05:30:18.837Z,315.60
2023-01-23T05:33:24.431Z,320.05
2023-01-23T05:36:27.778Z,308.83
2023-01-23T05:39:33.759Z,292.75
2023-01-23T05:42:38.936Z,298.70
2023-01-23T05:46:07.532Z,300.13
2023-01-23T05:49:28.261Z,333.15
2023-01-23T05:52:34.694Z,332.73
2023-01-23T05:55:39.255Z,331.15
2023-01-23T05:58:44.102Z,297.48
2023-01-23T06:02:07.606Z,331.15
2023-01-23T06:05:31.295Z,395.13
2023-01-23T06:08:38.859Z,261.73
2023-01-23T06:11:43.518Z,325.30
2023-01-23T06:14:48.038Z,305.10
2023-01-23T06:17:51.374Z,347.23
2023-01-23T06:21:00.981Z,330.73
2023-01-23T06:24:05.181Z,330.23
2023-01-23T06:27:08.888Z,323.63
2023-01-23T06:30:14.719Z,326.27
2023-01-23T06:33:26.230Z,337.10
2023-01-23T06:36:30.972Z,333.30
2023-01-23T06:39:35.282Z,318.60
2023-01-23T06:42:41.608Z,312.20
2023-01-23T06:45:45.711Z,305.02
2023-01-23T06:48:49.015Z,294.77
2023-01-23T06:51:53.742Z,310.55
2023-01-23T06:54:58.432Z,295.40
2023-01-23T06:58:01.870Z,326.92
2023-01-23T07:01:10.537Z,303.90
2023-01-23T07:04:49.355Z,308.77
2023-01-23T07:07:54.270Z,310.90
2023-01-23T07:10:57.766Z,296.13
2023-01-23T07:14:01.067Z,323.92
2023-01-23T07:17:05.398Z,327.67
2023-01-23T07:20:10.110Z,318.20
2023-01-23T07:23:19.914Z,219.02
2023-01-23T07:26:23.199Z,315.10
2023-01-23T07:29:26.493Z,350.58
2023-01-23T07:32:29.915Z,310.08
2023-01-23T07:35:33.598Z,336.27
2023-01-23T07:38:39.506Z,306.08
2023-01-23T07:41:44.302Z,312.88
2023-01-23T07:44:50.345Z,325.08
2023-01-23T07:47:53.719Z,317.02
2023-01-23T07:50:57.666Z,314.42
2023-01-23T07:54:02.481Z,318.38
2023-01-23T07:57:05.777Z,301.67
2023-01-23T08:00:10.932Z,347.35
2023-01-23T08:03:17.288Z,351.17
2023-01-23T08:06:20.946Z,304.13
2023-01-23T08:09:25.873Z,320.35
2023-01-23T08:12:30.328Z,341.67
2023-01-23T08:15:34.827Z,327.40
2023-01-23T08:18:39.090Z,334.05
2023-01-23T08:21:43.337Z,358.45
2023-01-23T08:24:48.529Z,322.35
2023-01-23T08:27:52.122Z,358.13
2023-01-23T08:30:55.825Z,360.83
2023-01-23T08:33:59.378Z,345.98
2023-01-23T08:37:03.516Z,331.63
2023-01-23T08:40:10.466Z,355.92
2023-01-23T08:43:14.913Z,369.48
2023-01-23T08:46:18.597Z,380.45
2023-01-23T08:49:22.009Z,387.33
2023-01-23T08:52:28.254Z,377.05
2023-01-23T08:55:36.038Z,391.88
2023-01-23T08:58:40.180Z,377.60
2023-01-23T09:01:43.574Z,429.80
2023-01-23T09:04:46.948Z,388.60
2023-01-23T09:07:50.245Z,386.13
2023-01-23T09:10:56.564Z,370.73
2023-01-23T09:14:00.254Z,356.65
2023-01-23T09:17:03.441Z,375.98
2023-01-23T09:20:08.292Z,368.92
2023-01-23T09:23:11.732Z,389.60
2023-01-23T09:26:19.599Z,383.80
2023-01-23T09:29:23.459Z,350.92
2023-01-23T09:32:26.825Z,379.88
2023-01-23T09:35:30.090Z,354.90
2023-01-23T09:38:34.234Z,357.30
2023-01-23T09:41:40.788Z,366.67
2023-01-23T09:44:46.569Z,356.98
2023-01-23T09:47:55.191Z,344.33
2023-01-23T09:51:02.991Z,338.90
2023-01-23T09:54:15.563Z,339.67
2023-01-23T09:57:25.445Z,366.58
2023-01-23T10:00:31.840Z,352.00
2023-01-23T10:03:36.199Z,365.75
2023-01-23T10:07:04.848Z,386.70
2023-01-23T10:10:32.364Z,376.73
2023-01-23T10:13:55.722Z,367.60
2023-01-23T10:17:08.634Z,335.17
2023-01-23T10:20:30.417Z,376.17
2023-01-23T10:23:56.594Z,372.73
2023-01-23T10:27:10.754Z,369.75
2023-01-23T10:30:27.232Z,407.83
2023-01-23T10:33:38.702Z,397.15
2023-01-23T10:36:54.724Z,415.75
2023-01-23T10:40:03.559Z,349.35
2023-01-23T10:43:13.723Z,402.83
2023-01-23T10:46:20.218Z,432.38
2023-01-23T10:49:32.526Z,431.05
2023-01-23T10:52:38.881Z,410.23
2023-01-23T10:55:46.980Z,406.67
2023-01-23T10:58:50.452Z,416.98
2023-01-23T11:02:01.158Z,439.27
2023-01-23T11:05:31.061Z,427.85
2023-01-23T11:08:37.696Z,442.98
2023-01-23T11:11:41.571Z,431.30
2023-01-23T11:14:44.879Z,412.73
2023-01-23T11:17:50.358Z,423.73
2023-01-23T11:20:56.445Z,399.00
2023-01-23T11:24:10.537Z,402.92
2023-01-23T11:27:20.434Z,398.27
2023-01-23T11:30:37.788Z,417.77
2023-01-23T11:33:48.429Z,434.30
2023-01-23T11:37:01.107Z,419.75
2023-01-23T11:40:08.351Z,418.67
2023-01-23T11:43:15.771Z,440.92
2023-01-23T11:46:41.325Z,434.30
2023-01-23T11:50:04.770Z,430.85
2023-01-23T11:53:22.501Z,399.08
2023-01-23T11:56:58.340Z,431.38
2023-01-23T12:03:35.927Z,447.73
2023-01-23T12:06:56.350Z,439.30
2023-01-23T12:13:28.127Z,488.35
2023-01-23T12:16:48.386Z,479.90
2023-01-23T12:20:26.116Z,467.08
2023-01-23T12:23:50.372Z,482.20
2023-01-23T12:27:03.567Z,485.80
2023-01-23T12:30:39.006Z,465.83
2023-01-23T12:34:05.535Z,475.88
2023-01-23T12:37:30.821Z,432.48
2023-01-23T12:40:41.615Z,418.15
2023-01-23T12:43:53.039Z,454.33
2023-01-23T12:47:02.148Z,419.17
2023-01-23T12:50:15.486Z,442.20
2023-01-23T12:53:20.162Z,436.08
2023-01-23T12:56:29.948Z,432.98
2023-01-23T12:59:42.984Z,324.13
2023-01-23T13:02:54.027Z,434.48
2023-01-23T13:06:09.593Z,425.33
2023-01-23T13:09:23.244Z,411.52
2023-01-23T13:12:29.699Z,433.23
2023-01-23T13:15:40.300Z,426.30
2023-01-23T13:19:12.466Z,449.40
2023-01-23T13:22:28.589Z,403.17
2023-01-23T13:25:38.192Z,422.88
2023-01-23T13:28:46.195Z,444.42
2023-01-23T13:31:52.635Z,417.95
2023-01-23T13:34:56.236Z,432.10
2023-01-23T13:38:00.277Z,439.50
2023-01-23T13:41:29.185Z,436.27
2023-01-23T13:44:42.322Z,417.95
2023-01-23T14:20:19.160Z,415.45
2023-01-23T14:23:29.890Z,423.98
2023-01-23T14:26:35.664Z,409.55
2023-01-23T14:29:38.954Z,400.15
2023-01-23T14:32:42.561Z,397.85
2023-01-23T14:35:47.973Z,404.10
2023-01-23T14:38:51.881Z,399.27
2023-01-23T14:41:59.063Z,406.77
2023-01-23T14:45:04.192Z,396.58
2023-01-23T14:48:08.951Z,409.80
2023-01-23T14:51:21.283Z,419.40
2023-01-23T14:54:26.389Z,395.95
2023-01-23T14:57:33.350Z,395.83
2023-01-23T15:00:37.490Z,372.27
2023-01-23T15:03:43.891Z,367.80
2023-01-23T15:06:52.411Z,415.00
2023-01-23T15:09:55.973Z,380.85
2023-01-23T15:13:02.380Z,400.67
2023-01-23T15:16:08.504Z,422.27
2023-01-23T15:19:21.695Z,389.20
2023-01-23T15:22:29.999Z,404.60
2023-01-23T15:25:34.673Z,421.45
2023-01-23T15:28:41.489Z,419.45
2023-01-23T15:31:47.827Z,398.02
2023-01-23T15:34:57.600Z,373.60
2023-01-23T15:38:05.401Z,404.13
2023-01-23T15:41:10.895Z,426.80
2023-01-23T15:44:16.291Z,434.38
2023-01-23T15:47:19.656Z,397.73
2023-01-23T15:50:23.240Z,441.13
2023-01-23T15:53:27.970Z,417.92
2023-01-23T15:56:33.374Z,449.88
2023-01-23T15:59:37.698Z,424.25
2023-01-23T16:02:54.365Z,427.67
2023-01-23T16:05:59.446Z,432.40
2023-01-23T16:09:05.980Z,360.48
2023-01-23T16:12:15.688Z,407.45
2023-01-23T16:15:21.532Z,390.55
2023-01-23T16:18:24.790Z,400.95
2023-01-23T16:21:31.413Z,409.90
2023-01-23T16:24:40.418Z,374.85
2023-01-23T16:27:44.626Z,412.95
2023-01-23T16:30:48.860Z,406.48
2023-01-23T16:33:52.402Z,401.65
2023-01-23T16:36:59.188Z,378.90
2023-01-23T16:40:04.707Z,372.75
2023-01-23T16:43:07.976Z,403.02
2023-01-23T16:46:12.302Z,411.75
2023-01-23T16:49:16.268Z,394.52
2023-01-23T16:52:19.628Z,392.83
2023-01-23T16:55:26.607Z,400.73
2023-01-23T16:58:32.990Z,391.95
2023-01-23T17:01:41.324Z,359.45
2023-01-23T17:04:44.635Z,347.65
2023-01-23T17:07:49.232Z,355.30
2023-01-23T17:10:58.780Z,357.13
2023-01-23T17:14:06.780Z,357.50
2023-01-23T17:17:15.377Z,337.48
2023-01-23T17:20:19.669Z,325.30
2023-01-23T17:23:23.061Z,336.15
2023-01-23T17:26:27.948Z,330.95
2023-01-23T17:29:31.614Z,327.60
2023-01-23T17:32:37.466Z,343.77
2023-01-23T17:35:40.864Z,387.27
2023-01-23T17:38:44.293Z,340.38
2023-01-23T17:41:51.417Z,402.05
2023-01-23T17:44:54.838Z,413.38
2023-01-23T17:47:58.340Z,374.88
2023-01-23T17:51:01.856Z,393.42
2023-01-23T17:54:05.800Z,376.30
2023-01-23T17:57:10.599Z,358.83
2023-01-23T18:00:15.891Z,399.30
2023-01-23T18:03:22.821Z,386.45
2023-01-23T18:06:27.984Z,397.52
2023-01-23T18:09:34.298Z,421.02
2023-01-23T18:12:45.904Z,408.38
2023-01-23T18:16:01.463Z,360.92
2023-01-23T18:19:17.387Z,383.33
2023-01-23T18:22:21.200Z,367.58
2023-01-23T18:25:26.341Z,399.80
2023-01-23T18:28:36.764Z,399.27
2023-01-23T18:34:53.765Z,407.77
2023-01-23T18:38:04.452Z,328.10
2023-01-23T18:41:17.917Z,373.85
2023-01-23T18:44:29.838Z,401.08
2023-01-23T18:47:34.596Z,425.65
2023-01-23T18:50:40.872Z,395.95
2023-01-23T18:53:55.563Z,322.63
2023-01-23T18:57:10.206Z,387.52
2023-01-23T19:00:24.072Z,344.58
2023-01-23T19:03:36.263Z,361.20
2023-01-23T19:06:41.230Z,415.42
2023-01-23T19:09:46.617Z,405.63
2023-01-23T19:13:11.171Z,384.25
2023-01-23T19:16:29.462Z,414.83
2023-01-23T19:19:40.867Z,388.90
2023-01-23T19:22:53.413Z,369.90
2023-01-23T19:25:57.164Z,408.95
2023-01-23T19:29:19.270Z,420.35
2023-01-23T19:32:26.195Z,461.52
2023-01-23T19:35:29.757Z,418.70
2023-01-23T19:38:33.248Z,423.90
2023-01-23T19:41:41.529Z,419.35
2023-01-23T19:44:44.923Z,430.92
2023-01-23T19:47:50.640Z,441.23
2023-01-23T19:50:53.957Z,422.60
2023-01-23T19:53:57.513Z,447.75
2023-01-23T19:57:00.953Z,474.30
2023-01-23T20:00:05.017Z,398.80
2023-01-23T20:03:16.406Z,354.52
2023-01-23T20:06:20.133Z,386.25
2023-01-23T20:09:23.490Z,386.02
2023-01-23T20:12:26.887Z,383.38
2023-01-23T20:15:30.591Z,361.25
2023-01-23T20:18:35.717Z,352.85
2023-01-23T20:21:39.140Z,341.60
2023-01-23T20:24:42.603Z,359.92
2023-01-23T20:27:47.303Z,361.92
2023-01-23T20:30:53.934Z,350.98
2023-01-23T20:33:58.715Z,348.85
2023-01-23T20:37:02.171Z,330.58
2023-01-23T20:40:09.040Z,335.58
2023-01-23T20:43:12.371Z,367.25
2023-01-23T20:46:16.925Z,347.10
2023-01-23T20:49:23.454Z,365.88
2023-01-23T20:52:45.053Z,391.05
2023-01-23T20:55:56.004Z,417.83
2023-01-23T20:59:17.228Z,382.50
2023-01-23T21:02:29.288Z,381.77
2023-01-23T21:05:38.044Z,392.50
2023-01-23T21:08:41.969Z,387.95
2023-01-23T21:11:46.749Z,402.35
2023-01-23T21:14:50.127Z,407.30
2023-01-23T21:17:53.584Z,434.58
2023-01-23T21:21:05.373Z,432.48
2023-01-23T21:24:09.465Z,375.92
2023-01-23T21:27:13.864Z,415.17
2023-01-23T21:30:17.585Z,430.40
2023-01-23T21:33:21.212Z,407.50
2023-01-23T21:36:26.547Z,408.08
2023-01-23T21:39:30.060Z,417.60
2023-01-23T21:42:33.421Z,408.95
2023-01-23T21:45:37.057Z,395.08
2023-01-23T21:48:40.433Z,416.50
2023-01-23T21:51:45.874Z,785.28
2023-01-23T21:54:49.084Z,623.60
2023-01-23T21:57:52.424Z,664.95
2023-01-23T22:01:16.008Z,677.45
2023-01-23T22:04:22.460Z,294.63
2023-01-23T22:07:27.212Z,348.73
2023-01-23T22:10:30.584Z,335.13
2023-01-23T22:13:34.390Z,372.80
2023-01-23T22:16:48.346Z,357.73
2023-01-23T22:19:53.029Z,326.15
2023-01-23T22:22:57.906Z,336.52
2023-01-23T22:26:02.916Z,345.88
2023-01-23T22:29:06.147Z,371.27
2023-01-23T22:32:09.461Z,391.05
2023-01-23T22:35:12.933Z,379.92
2023-01-23T22:38:18.040Z,362.50
2023-01-23T22:41:21.781Z,336.65
2023-01-23T22:44:25.331Z,323.48
2023-01-23T22:47:29.135Z,353.33
2023-01-23T22:50:32.577Z,343.25
2023-01-23T22:53:37.320Z,339.45
2023-01-23T22:56:40.622Z,335.15
2023-01-23T22:59:43.873Z,362.60
2023-01-23T23:02:47.188Z,330.63
2023-01-23T23:05:58.034Z,330.13
2023-01-23T23:09:02.814Z,343.45
2023-01-23T23:12:06.320Z,347.77
2023-01-23T23:15:10.696Z,365.17
2023-01-23T23:18:14.021Z,355.73
2023-01-23T23:21:21.248Z,361.92
2023-01-23T23:24:26.110Z,351.85
2023-01-23T23:27:29.476Z,325.75
2023-01-23T23:30:32.819Z,324.55
2023-01-23T23:33:36.483Z,317.73
2023-01-23T23:36:39.852Z,343.55
2023-01-23T23:39:44.468Z,342.30
2023-01-23T23:42:47.878Z,314.13
2023-01-23T23:45:53.016Z,325.52
2023-01-23T23:48:56.560Z,360.58
2023-01-23T23:51:59.840Z,373.08
2023-01-23T23:55:04.727Z,336.98
2023-01-23T23:58:08.011Z,366.30
